Coatesville, PA

8:21 PM EST on December 05, 2019 (GMT -0500)
Chester County Carlson

Weather History for KMQS - November, 2019

Change the Weather History Date:

Sunday, November 17, 2019

  Actual Average (KILG) Record (KILG)
Temperature  
Mean Temperature 34 °F -  
Max Temperature 42 °F 54 °F 71 °F (1953)
Min Temperature 26 °F 35 °F 18 °F (1933)
Degree Days  
Heating Degree Days 31    
Moisture  
Dew Point 20 °F    
Average Humidity 58    
Maximum Humidity 81    
Minimum Humidity 34    
Precipitation  
Precipitation 0.00 in - - ()
Sea Level Pressure  
Sea Level Pressure 30.21 in    
Wind  
Wind Speed 7 mph ()    
Max Wind Speed 13 mph    
Max Gust Speed 29 mph    
Visibility 10.0 miles    
Events      
Averages and records for this station are not official NWS values.
T = Trace of Precipitation, MM = Missing Value Source: Averaged Metar Reports

Daily Weather History Graph

Daily Weather History Graph

Search for Another Location

Airport or City:

Astronomy

Nov. 17, 2019 Rise Set
Actual Time 6:50 AM EST 4:45 PM EST
Civil Twilight 6:21 AM EST 5:14 PM EST
Nautical Twilight 5:48 AM EST 5:47 PM EST
Astronomical Twilight 5:16 AM EST 6:19 PM EST
Moon 9:19 PM EST (11/17) 11:34 AM EST (11/17)
Length of Visible Light 10h 53m
Length of Day
9h 55m
Waning Gibbous, 73% of the Moon is Illuminated
Nov 17
Waning Gibbous
Nov 19
Last Quarter
Nov 26
New
Dec 4
First Quarter
Dec 12
Full

Hourly Weather History & Observations

Time (EST) Temp. Windchill Dew Point Humidity Pressure Visibility Wind Dir Wind Speed Gust Speed Precip Events Conditions
12:15 AM 28.4 °F 19.7 °F 5.0 °F 37% 30.38 in 10.0 mi NNE 9.2 mph 15.0 mph N/A   Mostly Cloudy
12:35 AM 30.2 °F 21.9 °F 5.0 °F 34% 30.37 in 10.0 mi NE 9.2 mph 15.0 mph N/A   Overcast
12:55 AM 30.2 °F 22.6 °F 5.0 °F 34% 30.37 in 10.0 mi NE 8.1 mph 17.3 mph N/A   Overcast
1:15 AM 30.2 °F 23.4 °F 5.0 °F 34% 30.36 in 10.0 mi ENE 6.9 mph 12.7 mph N/A   Overcast
1:35 AM 30.2 °F 23.4 °F 5.0 °F 34% 30.37 in - NE 6.9 mph 12.7 mph N/A   Mostly Cloudy
1:55 AM 30.2 °F 23.4 °F 5.0 °F 34% 30.36 in 10.0 mi NNE 6.9 mph 15.0 mph N/A   Mostly Cloudy
2:15 AM 30.2 °F 25.4 °F 6.8 °F 37% 30.36 in 10.0 mi NE 4.6 mph 12.7 mph N/A   Overcast
2:35 AM 28.4 °F 20.4 °F 6.8 °F 40% 30.35 in 10.0 mi NE 8.1 mph 15.0 mph N/A   Mostly Cloudy
2:55 AM 28.4 °F 20.4 °F 6.8 °F 40% 30.34 in 10.0 mi NE 8.1 mph 13.8 mph N/A   Mostly Cloudy
3:15 AM 28.4 °F 19.7 °F 6.8 °F 40% 30.33 in 10.0 mi NNE 9.2 mph - N/A   Partly Cloudy
3:35 AM 28.4 °F 21.2 °F 6.8 °F 40% 30.33 in 10.0 mi NE 6.9 mph 13.8 mph N/A   Clear
3:55 AM 26.6 °F 21.2 °F 6.8 °F 43% 30.32 in 10.0 mi NE 4.6 mph 16.1 mph N/A   Clear
4:15 AM 26.6 °F 20.0 °F 6.8 °F 43% 30.32 in 10.0 mi NE 5.8 mph - N/A   Clear
4:35 AM 26.6 °F 18.2 °F 6.8 °F 43% 30.32 in 10.0 mi NNE 8.1 mph 13.8 mph N/A   Clear
4:55 AM 26.6 °F 18.2 °F 6.8 °F 43% 30.32 in 10.0 mi NNE 8.1 mph - N/A   Clear
5:15 AM 26.6 °F 18.2 °F 5.0 °F 40% 30.31 in 10.0 mi NNE 8.1 mph - N/A   Clear
5:35 AM 26.6 °F 19.1 °F 5.0 °F 40% 30.31 in 10.0 mi NNE 6.9 mph 15.0 mph N/A   Partly Cloudy
5:55 AM 26.6 °F 18.2 °F 5.0 °F 40% 30.30 in 10.0 mi NNE 8.1 mph 17.3 mph N/A   Mostly Cloudy
6:15 AM 26.6 °F 16.2 °F 5.0 °F 40% 30.30 in 10.0 mi North 11.5 mph - N/A   Partly Cloudy
6:35 AM 26.6 °F 17.5 °F 6.8 °F 43% 30.31 in 10.0 mi NNE 9.2 mph - N/A   Partly Cloudy
6:55 AM 28.4 °F 21.2 °F 6.8 °F 40% 30.31 in 10.0 mi NNE 6.9 mph 12.7 mph N/A   Mostly Cloudy
7:15 AM 28.4 °F 19.7 °F 10.4 °F 47% 30.32 in 10.0 mi NE 9.2 mph - N/A   Overcast
7:35 AM 28.4 °F 21.2 °F 12.2 °F 51% 30.31 in 10.0 mi NE 6.9 mph - N/A   Overcast
7:55 AM 30.2 °F 25.4 °F 14.0 °F 51% 30.31 in 10.0 mi NE 4.6 mph 12.7 mph N/A   Overcast
8:15 AM 30.2 °F 23.4 °F 14.0 °F 51% 30.30 in 10.0 mi NE 6.9 mph 15.0 mph N/A   Overcast
8:35 AM 30.2 °F 24.3 °F 15.8 °F 55% 30.30 in 10.0 mi NE 5.8 mph 16.1 mph N/A   Overcast
8:55 AM 32.0 °F 25.6 °F 17.6 °F 55% 30.30 in 10.0 mi NE 6.9 mph 20.7 mph N/A   Overcast
9:15 AM 32.0 °F 26.4 °F 19.4 °F 60% 30.29 in 10.0 mi NE 5.8 mph 13.8 mph N/A   Overcast
9:35 AM 33.8 °F 26.4 °F 19.4 °F 56% 30.28 in 10.0 mi NE 9.2 mph 17.3 mph N/A   Overcast
9:55 AM 33.8 °F 27.0 °F 21.2 °F 60% 30.28 in 10.0 mi ENE 8.1 mph 18.4 mph N/A   Overcast
10:15 AM 33.8 °F 27.7 °F 21.2 °F 60% 30.28 in 10.0 mi NE 6.9 mph 16.1 mph N/A   Overcast
10:35 AM 33.8 °F 27.7 °F 21.2 °F 60% 30.28 in 10.0 mi ENE 6.9 mph 17.3 mph N/A   Overcast
10:55 AM 35.6 °F 29.9 °F 23.0 °F 60% 30.27 in 10.0 mi NE 6.9 mph 15.0 mph N/A   Overcast
11:15 AM 35.6 °F 29.9 °F 23.0 °F 60% 30.25 in 10.0 mi NE 6.9 mph 13.8 mph N/A   Mostly Cloudy
11:35 AM 37.4 °F 34.9 °F 23.0 °F 56% 30.24 in 10.0 mi NE 3.5 mph 20.7 mph N/A   Overcast
11:55 AM 39.2 °F 34.2 °F 24.8 °F 56% 30.22 in 10.0 mi NE 6.9 mph 13.8 mph N/A   Overcast
12:15 PM 39.2 °F 31.6 °F 24.8 °F 56% 30.21 in 10.0 mi ENE 12.7 mph 28.8 mph N/A   Mostly Cloudy
12:35 PM 39.2 °F 33.6 °F 24.8 °F 56% 30.20 in 10.0 mi NE 8.1 mph 15.0 mph N/A   Overcast
12:55 PM 41.0 °F 37.1 °F 26.6 °F 57% 30.19 in 10.0 mi ENE 5.8 mph 17.3 mph N/A   Overcast
1:15 PM 41.0 °F 35.8 °F 26.6 °F 57% 30.18 in 10.0 mi NE 8.1 mph - N/A   Overcast
1:35 PM 41.0 °F 34.7 °F 26.6 °F 57% 30.17 in 10.0 mi NNE 10.4 mph - N/A   Overcast
1:55 PM 41.0 °F 35.2 °F 28.4 °F 61% 30.16 in 10.0 mi NE 9.2 mph 16.1 mph N/A   Overcast
2:15 PM 42.8 °F 39.3 °F 28.4 °F 57% 30.15 in 10.0 mi NE 5.8 mph 12.7 mph N/A   Overcast
2:35 PM 41.0 °F 34.3 °F 30.2 °F 65% 30.14 in 10.0 mi ENE 11.5 mph 24.2 mph N/A   Overcast
2:55 PM 41.0 °F 34.7 °F 30.2 °F 65% 30.14 in 10.0 mi ENE 10.4 mph 18.4 mph N/A   Overcast
3:15 PM 41.0 °F 38.0 °F 30.2 °F 65% 30.14 in 10.0 mi ENE 4.6 mph 18.4 mph N/A   Overcast
3:35 PM 41.0 °F 36.4 °F 30.2 °F 65% 30.13 in 10.0 mi NE 6.9 mph 15.0 mph N/A   Overcast
3:55 PM 41.0 °F 37.1 °F 30.2 °F 65% 30.13 in 10.0 mi ENE 5.8 mph 13.8 mph N/A   Overcast
4:15 PM 41.0 °F 36.4 °F 30.2 °F 65% 30.12 in 10.0 mi NE 6.9 mph 15.0 mph N/A   Overcast
4:35 PM 41.0 °F 36.4 °F 30.2 °F 65% 30.12 in 10.0 mi NNE 6.9 mph 15.0 mph N/A   Overcast
4:55 PM 39.2 °F 35.0 °F 30.2 °F 70% 30.12 in 10.0 mi NE 5.8 mph 20.7 mph N/A   Overcast
5:15 PM 39.2 °F 33.6 °F 30.2 °F 70% 30.12 in 10.0 mi NE 8.1 mph - N/A   Overcast
5:35 PM 39.2 °F 35.0 °F 32.0 °F 75% 30.12 in 10.0 mi NE 5.8 mph 16.1 mph N/A   Overcast
5:55 PM 39.2 °F - 32.0 °F 75% 30.11 in 10.0 mi Calm Calm 16.1 mph N/A   Overcast
6:15 PM 39.2 °F 33.0 °F 32.0 °F 75% 30.11 in 10.0 mi NE 9.2 mph 17.3 mph N/A   Overcast
6:35 PM 39.2 °F - 32.0 °F 75% 30.10 in 10.0 mi Calm Calm 15.0 mph N/A   Overcast
6:55 PM 37.4 °F 33.8 °F 32.0 °F 81% 30.10 in 10.0 mi NE 4.6 mph 23.0 mph N/A   Overcast
7:15 PM 37.4 °F 33.8 °F 32.0 °F 81% 30.10 in 10.0 mi NE 4.6 mph 11.5 mph N/A   Overcast
7:35 PM 37.4 °F 33.8 °F 32.0 °F 81% 30.09 in 10.0 mi NE 4.6 mph 15.0 mph N/A   Overcast
8:15 PM 37.4 °F 33.8 °F 32.0 °F 81% 30.08 in 10.0 mi NE 4.6 mph 11.5 mph N/A   Overcast
8:35 PM 37.4 °F 32.8 °F 32.0 °F 81% 30.08 in 10.0 mi NE 5.8 mph 15.0 mph N/A   Overcast
8:55 PM 37.4 °F 31.4 °F 32.0 °F 81% 30.07 in 10.0 mi NE 8.1 mph 15.0 mph N/A   Overcast
9:15 PM 37.4 °F 32.1 °F 30.2 °F 75% 30.06 in 10.0 mi NE 6.9 mph 12.7 mph N/A   Overcast
9:35 PM 37.4 °F 31.4 °F 30.2 °F 75% 30.05 in 10.0 mi NNE 8.1 mph - N/A   Overcast
9:55 PM 37.4 °F 29.8 °F 30.2 °F 75% 30.04 in 10.0 mi NNE 11.5 mph - N/A   Overcast
10:15 PM 37.4 °F 32.1 °F 30.2 °F 75% 30.03 in 10.0 mi NNE 6.9 mph 15.0 mph N/A   Overcast
10:35 PM 37.4 °F 32.8 °F 30.2 °F 75% 30.02 in 10.0 mi NE 5.8 mph 16.1 mph N/A   Overcast
11:15 PM 37.4 °F 33.8 °F 30.2 °F 75% 30.01 in 10.0 mi NE 4.6 mph 13.8 mph N/A   Overcast
11:35 PM 37.4 °F 32.1 °F 30.2 °F 75% 30.00 in 10.0 mi NE 6.9 mph - N/A   Overcast
11:55 PM 37.4 °F 32.1 °F 30.2 °F 75% 30.00 in 10.0 mi NE 6.9 mph 12.7 mph N/A   Overcast